SAOC/RCU METAR and TAF weather

Enter ICAO airport designator
Station Type Date Time Source
SAOC METAR 2020/07/02 21:00 UTC NOAA

SAOC 022100Z 07005KT CAVOK 15/M01 Q1018


Station Type Date Time Source
SAOC Decoded METAR 2020/07/02 21:00 UTC NOAA

Rio Cuarto Aerodrome, Argentina (SAOC) 33-07S 064-14W 421M
Jul 02, 2020 - 05:00 PM EDT / 2020.07.02 2100 UTC
Wind: from the ENE (070 degrees) at 6 MPH (5 KT):0
Visibility: greater than 7 mile(s):0
Temperature: 59 F (15 C)
Dew Point: 30 F (-1 C)
Relative Humidity: 33%
Pressure (altimeter): 30.06 in. Hg (1018 hPa)
ob: SAOC 022100Z 07005KT CAVOK 15/M01 Q1018
cycle: 21

Station Type Date Time Source
SAOC TAF 2020/06/08 00:58 UTC NOAA

TAF SAOC 082300Z 0900/0924 VRB03KT CAVOK TX22/0818Z TN06/0910Z
TEMPO 0906/0912 02005KT 0500 FG SCT008

Example: see airport list